HCA weather

Big Spring Mc Mahon-Wrinkle Airport
Big Spring, Texas, United States

Public forecast

Using degrees Fahrenheit for public forecast. Weather courtesy of forecast.io.

METAR (pilot weather report)

Retrieved 2019/03/23 16:15 UTC (36 minutes ago):

KBPG 231615Z AUTO 30006KT 10SM CLR 17/07 A3009 RMK AO2 T01670067

TAF (pilot weather forecast)

Closest forecast is Midland International Airport, 38.2 nm (70.8 km) WSW. Retrieved 2019/03/23 12:40 UTC (4 hours ago):

TAF KMAF 231137Z 2312/2412 26011KT P6SM SKC TEMPO 2312/2315 2SM BR